createdAt,value
2022-08-26T00:01:51.965Z,1013.11
2022-08-26T00:06:59.230Z,1013.07
2022-08-26T00:12:06.192Z,1013.08
2022-08-26T00:17:13.981Z,1013.02
2022-08-26T00:22:21.550Z,1013.01
2022-08-26T00:27:27.540Z,1012.98
2022-08-26T00:32:34.349Z,1012.96
2022-08-26T00:37:41.612Z,1012.94
2022-08-26T00:42:49.045Z,1012.89
2022-08-26T00:47:55.899Z,1012.85
2022-08-26T00:53:03.559Z,1012.81
2022-08-26T00:58:10.316Z,1012.80
2022-08-26T01:03:17.095Z,1012.85
2022-08-26T01:08:24.466Z,1012.84
2022-08-26T01:13:31.225Z,1012.81
2022-08-26T01:18:38.744Z,1012.76
2022-08-26T01:23:45.529Z,1012.81
2022-08-26T01:28:52.763Z,1012.83
2022-08-26T01:34:00.249Z,1012.83
2022-08-26T01:39:07.169Z,1012.82
2022-08-26T01:44:14.068Z,1012.75
2022-08-26T01:49:21.455Z,1012.74
2022-08-26T01:54:28.263Z,1012.75
2022-08-26T01:59:35.877Z,1012.69
2022-08-26T02:04:42.674Z,1012.67
2022-08-26T02:09:49.419Z,1012.68
2022-08-26T02:14:56.962Z,1012.67
2022-08-26T02:20:03.773Z,1012.64
2022-08-26T02:25:11.119Z,1012.61
2022-08-26T02:30:17.955Z,1012.58
2022-08-26T02:35:26.292Z,1012.61
2022-08-26T02:40:32.063Z,1012.59
2022-08-26T02:45:39.267Z,1012.59
2022-08-26T02:50:46.687Z,1012.64
2022-08-26T02:55:53.384Z,1012.59
2022-08-26T03:01:01.527Z,1012.52
2022-08-26T03:06:08.924Z,1012.53
2022-08-26T03:11:14.583Z,1012.54
2022-08-26T03:16:21.932Z,1012.58
2022-08-26T03:21:29.554Z,1012.58
2022-08-26T03:26:36.532Z,1012.53
2022-08-26T03:31:43.295Z,1012.46
2022-08-26T03:36:50.421Z,1012.38
2022-08-26T03:41:57.653Z,1012.34
2022-08-26T03:47:04.430Z,1012.36
2022-08-26T03:52:11.883Z,1012.36
2022-08-26T03:57:18.836Z,1012.34
2022-08-26T04:02:25.878Z,1012.33
2022-08-26T04:07:33.238Z,1012.35
2022-08-26T04:12:40.297Z,1012.29
2022-08-26T04:17:47.300Z,1012.27
2022-08-26T04:22:54.166Z,1012.33
2022-08-26T04:28:01.650Z,1012.33
2022-08-26T04:33:13.063Z,1012.32
2022-08-26T04:38:15.826Z,1012.27
2022-08-26T04:43:22.833Z,1012.23
2022-08-26T04:48:29.977Z,1012.23
2022-08-26T04:53:37.113Z,1012.21
2022-08-26T04:58:44.020Z,1012.25
2022-08-26T05:03:51.466Z,1012.25
2022-08-26T05:08:58.348Z,1012.27
2022-08-26T05:14:05.185Z,1012.35
2022-08-26T05:19:12.839Z,1012.41
2022-08-26T05:24:19.938Z,1012.51
2022-08-26T05:29:26.859Z,1012.59
2022-08-26T05:34:33.728Z,1012.59
2022-08-26T05:39:41.264Z,1012.61
2022-08-26T05:44:55.620Z,1012.61
2022-08-26T05:49:55.239Z,1012.65
2022-08-26T05:55:02.363Z,1012.64
2022-08-26T07:32:17.748Z,1012.81
2022-08-26T07:37:25.165Z,1012.74
2022-08-26T07:42:31.926Z,1012.70
2022-08-26T07:52:46.189Z,1012.87
2022-08-26T07:57:53.496Z,1012.83
2022-08-26T08:03:00.814Z,1012.84
2022-08-26T08:08:21.864Z,1012.91
2022-08-26T08:18:22.280Z,1012.83
2022-08-26T08:28:36.210Z,1012.79
2022-08-26T08:33:43.594Z,1012.74
2022-08-26T08:49:04.695Z,1012.76
2022-08-26T08:54:12.060Z,1012.72
2022-08-26T08:59:19.946Z,1012.62
2022-08-26T09:04:26.521Z,1012.48
2022-08-26T09:09:33.557Z,1012.47
2022-08-26T09:14:41.052Z,1012.47
2022-08-26T09:19:48.116Z,1012.34
2022-08-26T09:24:54.960Z,1012.35
2022-08-26T09:30:02.591Z,1012.39
2022-08-26T09:30:02.790Z,1012.39
2022-08-26T09:35:09.600Z,1012.41
2022-08-26T09:40:18.203Z,1012.39
2022-08-26T09:45:24.925Z,1012.31
2022-08-26T09:50:30.959Z,1012.26
2022-08-26T09:55:37.975Z,1012.13
2022-08-26T10:00:52.823Z,1012.08
2022-08-26T10:05:52.263Z,1011.97
2022-08-26T10:11:06.090Z,1011.87
2022-08-26T10:21:15.525Z,1011.61
2022-08-26T10:26:20.845Z,1011.58
2022-08-26T10:31:28.395Z,1011.39
2022-08-26T10:41:42.398Z,1011.39
2022-08-26T10:46:49.447Z,1011.32
2022-08-26T10:51:57.045Z,1011.20
2022-08-26T10:57:04.169Z,1011.00
2022-08-26T11:02:11.165Z,1010.83
2022-08-26T11:07:18.509Z,1010.78
2022-08-26T11:12:25.475Z,1010.78
2022-08-26T11:17:32.331Z,1010.81
2022-08-26T11:22:47.625Z,1010.83
2022-08-26T11:27:46.611Z,1010.60
2022-08-26T11:32:54.084Z,1010.39
2022-08-26T11:38:00.981Z,1010.16
2022-08-26T11:43:08.054Z,1010.16
2022-08-26T11:53:22.964Z,1010.59
2022-08-26T11:58:29.609Z,1010.54
2022-08-26T12:08:44.113Z,1010.73
2022-08-26T12:13:50.934Z,1010.77
2022-08-26T14:11:39.053Z,1010.08
2022-08-26T14:16:59.098Z,1010.22
2022-08-26T16:29:47.663Z,1009.07
2022-08-26T16:34:56.741Z,1009.02
2022-08-26T16:40:00.891Z,1008.92
2022-08-26T16:45:07.703Z,1008.85
2022-08-26T16:50:15.029Z,1008.89
2022-08-26T16:55:21.997Z,1008.92
2022-08-26T17:00:28.959Z,1009.06
2022-08-26T17:05:36.522Z,1009.25
2022-08-26T17:15:50.669Z,1009.18
2022-08-26T17:20:57.428Z,1009.15
2022-08-26T17:26:04.712Z,1009.24
2022-08-26T17:31:11.762Z,1009.36
2022-08-26T17:36:19.119Z,1009.32
2022-08-26T17:41:25.978Z,1009.29
2022-08-26T17:46:35.321Z,1009.26
2022-08-26T17:51:40.486Z,1009.29
2022-08-26T17:56:47.725Z,1009.29
2022-08-26T18:01:54.328Z,1009.29
2022-08-26T18:07:01.290Z,1009.22
2022-08-26T18:12:08.996Z,1009.18
2022-08-26T18:17:15.604Z,1009.15
2022-08-26T18:22:22.407Z,1009.14
2022-08-26T18:27:29.695Z,1009.09
2022-08-26T18:32:37.098Z,1009.09
2022-08-26T18:37:43.872Z,1009.09
2022-08-26T18:42:54.029Z,1009.11
2022-08-26T18:47:57.936Z,1009.06
2022-08-26T18:53:05.427Z,1008.87
2022-08-26T18:58:12.341Z,1008.80
2022-08-26T19:03:19.634Z,1008.76
2022-08-26T19:08:26.491Z,1008.76
2022-08-26T19:13:34.037Z,1008.84
2022-08-26T19:18:40.824Z,1009.01
2022-08-26T19:23:47.795Z,1009.23
2022-08-26T19:34:02.069Z,1009.51
2022-08-26T19:39:09.340Z,1009.58
2022-08-26T19:44:16.146Z,1009.63
2022-08-26T19:49:24.677Z,1009.62
2022-08-26T19:54:30.634Z,1009.66
2022-08-26T19:59:37.634Z,1009.69
2022-08-26T20:04:44.757Z,1009.76
2022-08-26T20:09:51.548Z,1009.78
2022-08-26T20:14:59.054Z,1009.71
2022-08-26T20:20:05.812Z,1009.66
2022-08-26T20:25:13.157Z,1009.74
2022-08-26T20:30:20.075Z,1009.83
2022-08-26T20:35:27.475Z,1009.90
